Abbeville, Mississippi
Current Conditions -  °F | °C
As of 5:15 AM on Sunday 23 Nov 2014 (Local Time) from KUOX Reporting Station
Haze Haze  
Wind Chill: 55°   Ceiling: 600
Heat Index: 55°   Visibility: 2mi
Dew Point: 54°   Wind: 12mph
Humidity: 94%   Direction: 130°SE
Pressure: 29.81"   Gusts: 16mph
Location:  34.5°N, 89.5°W
Report Text: KUOX 231115Z AUTO 13010G14KT 2SM BR SCT001 OVC006 13/12 A2981 RMK AO2 PWINO PNO
Loading
Personal Weather Stations






























Interactive Weather Map New forecast layout! Learn more

10-Day Weather Forecast

Advertisements
Track Severe Weather on mobile